sensor_id;sensor_type;location;lat;lon;timestamp;temperature;humidity
36790;DHT22;22740;52.182;8.780;2024-02-23T00:03:53;8.20;52.60
36790;DHT22;22740;52.182;8.780;2024-02-23T00:09:57;8.20;90.80
36790;DHT22;22740;52.182;8.780;2024-02-23T00:15:59;8.20;45.20
36790;DHT22;22740;52.182;8.780;2024-02-23T00:22:01;8.10;69.30
36790;DHT22;22740;52.182;8.780;2024-02-23T00:28:06;8.00;81.20
36790;DHT22;22740;52.182;8.780;2024-02-23T00:34:08;7.90;87.40
36790;DHT22;22740;52.182;8.780;2024-02-23T00:40:15;7.90;95.90
36790;DHT22;22740;52.182;8.780;2024-02-23T00:46:19;7.50;99.90
36790;DHT22;22740;52.182;8.780;2024-02-23T00:52:20;7.10;99.90
36790;DHT22;22740;52.182;8.780;2024-02-23T00:58:24;7.00;99.90
36790;DHT22;22740;52.182;8.780;2024-02-23T01:04:26;6.90;99.90
36790;DHT22;22740;52.182;8.780;2024-02-23T01:10:28;6.60;99.90
36790;DHT22;22740;52.182;8.780;2024-02-23T01:16:30;6.10;99.90
36790;DHT22;22740;52.182;8.780;2024-02-23T01:22:34;5.90;99.90
36790;DHT22;22740;52.182;8.780;2024-02-23T01:28:36;5.70;99.90
36790;DHT22;22740;52.182;8.780;2024-02-23T01:34:38;5.50;99.90
36790;DHT22;22740;52.182;8.780;2024-02-23T01:40:40;5.60;99.90
36790;DHT22;22740;52.182;8.780;2024-02-23T01:46:41;5.50;99.90
36790;DHT22;22740;52.182;8.780;2024-02-23T01:52:43;5.40;99.90
36790;DHT22;22740;52.182;8.780;2024-02-23T01:58:46;5.40;99.90
36790;DHT22;22740;52.182;8.780;2024-02-23T02:04:48;5.40;99.90
36790;DHT22;22740;52.182;8.780;2024-02-23T02:10:50;5.20;99.90
36790;DHT22;22740;52.182;8.780;2024-02-23T02:16:52;5.30;99.90
36790;DHT22;22740;52.182;8.780;2024-02-23T02:22:54;5.40;99.90
36790;DHT22;22740;52.182;8.780;2024-02-23T02:28:56;5.40;99.90
36790;DHT22;22740;52.182;8.780;2024-02-23T02:34:58;5.30;99.90
36790;DHT22;22740;52.182;8.780;2024-02-23T02:41:00;5.20;99.90
36790;DHT22;22740;52.182;8.780;2024-02-23T02:47:02;5.30;99.90
36790;DHT22;22740;52.182;8.780;2024-02-23T02:53:04;5.30;99.90
36790;DHT22;22740;52.182;8.780;2024-02-23T02:59:06;5.30;99.90
36790;DHT22;22740;52.182;8.780;2024-02-23T03:05:08;5.30;99.90
36790;DHT22;22740;52.182;8.780;2024-02-23T03:11:10;5.30;99.90
36790;DHT22;22740;52.182;8.780;2024-02-23T03:17:14;5.30;99.90
36790;DHT22;22740;52.182;8.780;2024-02-23T03:23:16;5.30;99.90
36790;DHT22;22740;52.182;8.780;2024-02-23T03:29:18;5.30;99.90
36790;DHT22;22740;52.182;8.780;2024-02-23T03:35:20;5.30;99.90
36790;DHT22;22740;52.182;8.780;2024-02-23T03:41:22;5.40;99.90
36790;DHT22;22740;52.182;8.780;2024-02-23T03:47:24;5.50;99.90
36790;DHT22;22740;52.182;8.780;2024-02-23T03:53:26;5.50;99.90
36790;DHT22;22740;52.182;8.780;2024-02-23T03:59:28;5.50;99.90
36790;DHT22;22740;52.182;8.780;2024-02-23T04:05:30;5.50;99.90
36790;DHT22;22740;52.182;8.780;2024-02-23T04:11:32;5.60;99.90
36790;DHT22;22740;52.182;8.780;2024-02-23T04:17:34;5.60;99.90
36790;DHT22;22740;52.182;8.780;2024-02-23T04:23:36;5.60;99.90
36790;DHT22;22740;52.182;8.780;2024-02-23T04:29:38;5.60;99.90
36790;DHT22;22740;52.182;8.780;2024-02-23T04:35:40;5.50;99.90
36790;DHT22;22740;52.182;8.780;2024-02-23T04:41:42;5.50;99.90
36790;DHT22;22740;52.182;8.780;2024-02-23T04:47:44;5.50;99.90
36790;DHT22;22740;52.182;8.780;2024-02-23T04:53:49;5.40;99.90
36790;DHT22;22740;52.182;8.780;2024-02-23T04:59:51;5.40;99.90
36790;DHT22;22740;52.182;8.780;2024-02-23T05:05:52;5.40;99.90
36790;DHT22;22740;52.182;8.780;2024-02-23T05:11:55;5.30;99.90
36790;DHT22;22740;52.182;8.780;2024-02-23T05:17:58;5.30;99.90
36790;DHT22;22740;52.182;8.780;2024-02-23T05:24:00;5.20;99.90
36790;DHT22;22740;52.182;8.780;2024-02-23T05:30:02;5.40;99.90
36790;DHT22;22740;52.182;8.780;2024-02-23T05:36:05;5.40;99.90
36790;DHT22;22740;52.182;8.780;2024-02-23T05:42:07;5.40;99.90
36790;DHT22;22740;52.182;8.780;2024-02-23T05:48:09;5.30;99.90
36790;DHT22;22740;52.182;8.780;2024-02-23T05:54:11;5.30;99.90
36790;DHT22;22740;52.182;8.780;2024-02-23T06:00:13;5.30;99.90
36790;DHT22;22740;52.182;8.780;2024-02-23T06:06:17;5.30;99.90
36790;DHT22;22740;52.182;8.780;2024-02-23T06:12:19;5.30;99.90
36790;DHT22;22740;52.182;8.780;2024-02-23T06:18:21;5.30;99.90
36790;DHT22;22740;52.182;8.780;2024-02-23T06:24:23;5.30;99.90
36790;DHT22;22740;52.182;8.780;2024-02-23T06:30:25;5.30;99.90
36790;DHT22;22740;52.182;8.780;2024-02-23T06:36:27;5.30;99.90
36790;DHT22;22740;52.182;8.780;2024-02-23T06:42:28;5.30;99.90
36790;DHT22;22740;52.182;8.780;2024-02-23T06:48:30;5.40;99.90
36790;DHT22;22740;52.182;8.780;2024-02-23T06:54:34;5.40;99.90
36790;DHT22;22740;52.182;8.780;2024-02-23T07:00:36;5.40;99.90
36790;DHT22;22740;52.182;8.780;2024-02-23T07:06:38;5.40;99.90
36790;DHT22;22740;52.182;8.780;2024-02-23T07:12:39;5.50;99.90
36790;DHT22;22740;52.182;8.780;2024-02-23T07:18:41;5.40;99.90
36790;DHT22;22740;52.182;8.780;2024-02-23T07:24:44;5.50;99.90
36790;DHT22;22740;52.182;8.780;2024-02-23T07:30:46;5.60;99.90
36790;DHT22;22740;52.182;8.780;2024-02-23T07:36:51;5.70;99.90
36790;DHT22;22740;52.182;8.780;2024-02-23T07:42:54;5.60;99.90
36790;DHT22;22740;52.182;8.780;2024-02-23T07:48:56;5.60;99.90
36790;DHT22;22740;52.182;8.780;2024-02-23T07:54:58;5.70;99.90
36790;DHT22;22740;52.182;8.780;2024-02-23T08:01:02;5.80;99.90
36790;DHT22;22740;52.182;8.780;2024-02-23T08:07:05;5.90;99.90
36790;DHT22;22740;52.182;8.780;2024-02-23T08:13:08;6.00;99.90
36790;DHT22;22740;52.182;8.780;2024-02-23T08:19:12;6.10;99.90
36790;DHT22;22740;52.182;8.780;2024-02-23T08:25:14;6.30;99.90
36790;DHT22;22740;52.182;8.780;2024-02-23T08:31:16;6.50;90.60
36790;DHT22;22740;52.182;8.780;2024-02-23T08:37:18;6.60;99.90
36790;DHT22;22740;52.182;8.780;2024-02-23T08:43:21;6.60;99.90
36790;DHT22;22740;52.182;8.780;2024-02-23T08:49:22;6.90;99.90
36790;DHT22;22740;52.182;8.780;2024-02-23T08:55:24;6.80;99.90
36790;DHT22;22740;52.182;8.780;2024-02-23T09:01:26;7.00;99.90
36790;DHT22;22740;52.182;8.780;2024-02-23T09:07:28;7.00;99.90
36790;DHT22;22740;52.182;8.780;2024-02-23T09:13:32;6.80;99.90
36790;DHT22;22740;52.182;8.780;2024-02-23T09:19:34;6.80;99.90
36790;DHT22;22740;52.182;8.780;2024-02-23T09:25:36;6.80;99.90
36790;DHT22;22740;52.182;8.780;2024-02-23T09:31:38;6.90;99.90
36790;DHT22;22740;52.182;8.780;2024-02-23T09:37:40;6.80;99.90
36790;DHT22;22740;52.182;8.780;2024-02-23T09:43:42;6.70;99.90
36790;DHT22;22740;52.182;8.780;2024-02-23T09:49:48;6.60;99.90
36790;DHT22;22740;52.182;8.780;2024-02-23T09:55:53;6.60;99.90
36790;DHT22;22740;52.182;8.780;2024-02-23T10:01:55;6.60;99.90
36790;DHT22;22740;52.182;8.780;2024-02-23T10:07:57;6.60;99.90
36790;DHT22;22740;52.182;8.780;2024-02-23T10:14:00;6.60;99.90
36790;DHT22;22740;52.182;8.780;2024-02-23T10:20:02;6.70;99.90
36790;DHT22;22740;52.182;8.780;2024-02-23T10:26:07;6.80;99.90
36790;DHT22;22740;52.182;8.780;2024-02-23T10:32:14;6.90;99.90
36790;DHT22;22740;52.182;8.780;2024-02-23T10:38:18;6.90;99.90
36790;DHT22;22740;52.182;8.780;2024-02-23T10:44:21;6.90;99.90
36790;DHT22;22740;52.182;8.780;2024-02-23T10:50:24;6.90;99.90
36790;DHT22;22740;52.182;8.780;2024-02-23T10:56:28;7.10;99.90
36790;DHT22;22740;52.182;8.780;2024-02-23T11:02:31;7.10;99.90
36790;DHT22;22740;52.182;8.780;2024-02-23T11:08:37;7.20;99.90
36790;DHT22;22740;52.182;8.780;2024-02-23T11:14:39;7.30;99.90
36790;DHT22;22740;52.182;8.780;2024-02-23T11:20:41;7.30;99.90
36790;DHT22;22740;52.182;8.780;2024-02-23T11:26:48;7.50;99.90
36790;DHT22;22740;52.182;8.780;2024-02-23T11:32:50;7.50;99.90
36790;DHT22;22740;52.182;8.780;2024-02-23T11:39:00;7.90;99.90
36790;DHT22;22740;52.182;8.780;2024-02-23T11:45:02;8.10;99.90
36790;DHT22;22740;52.182;8.780;2024-02-23T11:51:04;8.30;99.90
36790;DHT22;22740;52.182;8.780;2024-02-23T11:57:07;8.10;99.90
36790;DHT22;22740;52.182;8.780;2024-02-23T12:03:09;8.00;99.90
36790;DHT22;22740;52.182;8.780;2024-02-23T12:09:12;8.00;99.90
36790;DHT22;22740;52.182;8.780;2024-02-23T12:15:14;7.90;99.90
36790;DHT22;22740;52.182;8.780;2024-02-23T12:21:16;8.00;99.90
36790;DHT22;22740;52.182;8.780;2024-02-23T12:27:19;8.00;99.90
36790;DHT22;22740;52.182;8.780;2024-02-23T12:33:23;8.00;99.90
36790;DHT22;22740;52.182;8.780;2024-02-23T12:39:25;8.20;99.90
36790;DHT22;22740;52.182;8.780;2024-02-23T12:45:28;8.20;99.90
36790;DHT22;22740;52.182;8.780;2024-02-23T12:51:30;8.30;99.90
36790;DHT22;22740;52.182;8.780;2024-02-23T12:57:31;8.40;99.90
36790;DHT22;22740;52.182;8.780;2024-02-23T13:03:34;8.30;99.90
36790;DHT22;22740;52.182;8.780;2024-02-23T13:09:36;8.30;99.90
36790;DHT22;22740;52.182;8.780;2024-02-23T13:15:38;8.20;99.90
36790;DHT22;22740;52.182;8.780;2024-02-23T13:21:40;8.30;99.90
36790;DHT22;22740;52.182;8.780;2024-02-23T13:27:42;8.40;99.90
36790;DHT22;22740;52.182;8.780;2024-02-23T13:33:44;8.70;99.90
36790;DHT22;22740;52.182;8.780;2024-02-23T13:39:47;8.70;99.90
36790;DHT22;22740;52.182;8.780;2024-02-23T13:45:51;8.70;99.90
36790;DHT22;22740;52.182;8.780;2024-02-23T13:51:55;8.50;99.90
36790;DHT22;22740;52.182;8.780;2024-02-23T13:57:56;8.60;99.90
36790;DHT22;22740;52.182;8.780;2024-02-23T14:03:58;8.40;99.90
36790;DHT22;22740;52.182;8.780;2024-02-23T14:10:01;8.40;99.90
36790;DHT22;22740;52.182;8.780;2024-02-23T14:16:04;8.40;99.90
36790;DHT22;22740;52.182;8.780;2024-02-23T14:22:06;8.30;99.90
36790;DHT22;22740;52.182;8.780;2024-02-23T14:28:08;8.30;99.90
36790;DHT22;22740;52.182;8.780;2024-02-23T14:34:11;8.20;99.90
36790;DHT22;22740;52.182;8.780;2024-02-23T14:40:13;8.10;99.90
36790;DHT22;22740;52.182;8.780;2024-02-23T14:46:16;8.00;99.90
36790;DHT22;22740;52.182;8.780;2024-02-23T14:52:18;7.30;99.90
36790;DHT22;22740;52.182;8.780;2024-02-23T14:58:20;7.30;99.90
36790;DHT22;22740;52.182;8.780;2024-02-23T15:04:21;7.40;99.90
36790;DHT22;22740;52.182;8.780;2024-02-23T15:10:23;7.50;99.90
36790;DHT22;22740;52.182;8.780;2024-02-23T15:16:26;7.60;99.90
36790;DHT22;22740;52.182;8.780;2024-02-23T15:22:29;7.70;99.90
36790;DHT22;22740;52.182;8.780;2024-02-23T15:28:31;7.70;99.90
36790;DHT22;22740;52.182;8.780;2024-02-23T15:34:33;7.50;99.90
36790;DHT22;22740;52.182;8.780;2024-02-23T15:40:35;7.40;99.90
36790;DHT22;22740;52.182;8.780;2024-02-23T15:46:37;7.40;99.90
36790;DHT22;22740;52.182;8.780;2024-02-23T15:52:39;7.60;99.90
36790;DHT22;22740;52.182;8.780;2024-02-23T15:58:41;7.60;99.90
36790;DHT22;22740;52.182;8.780;2024-02-23T16:04:43;7.60;99.90
36790;DHT22;22740;52.182;8.780;2024-02-23T16:10:45;7.50;99.90
36790;DHT22;22740;52.182;8.780;2024-02-23T16:16:48;7.50;99.90
36790;DHT22;22740;52.182;8.780;2024-02-23T16:22:52;7.40;99.90
36790;DHT22;22740;52.182;8.780;2024-02-23T16:28:54;7.40;99.90
36790;DHT22;22740;52.182;8.780;2024-02-23T16:34:57;7.40;99.90
36790;DHT22;22740;52.182;8.780;2024-02-23T16:41:00;7.30;99.90
36790;DHT22;22740;52.182;8.780;2024-02-23T16:47:02;7.40;99.90
36790;DHT22;22740;52.182;8.780;2024-02-23T16:53:04;7.50;99.90
36790;DHT22;22740;52.182;8.780;2024-02-23T16:59:06;7.50;99.90
36790;DHT22;22740;52.182;8.780;2024-02-23T17:05:08;7.50;99.90
36790;DHT22;22740;52.182;8.780;2024-02-23T17:11:10;7.50;99.90
36790;DHT22;22740;52.182;8.780;2024-02-23T17:17:12;7.40;99.90
36790;DHT22;22740;52.182;8.780;2024-02-23T17:23:15;7.30;99.90
36790;DHT22;22740;52.182;8.780;2024-02-23T17:29:16;7.30;99.90
36790;DHT22;22740;52.182;8.780;2024-02-23T17:35:18;7.30;99.90
36790;DHT22;22740;52.182;8.780;2024-02-23T17:41:21;7.10;99.90
36790;DHT22;22740;52.182;8.780;2024-02-23T17:47:25;7.00;99.90
36790;DHT22;22740;52.182;8.780;2024-02-23T17:53:27;6.90;99.90
36790;DHT22;22740;52.182;8.780;2024-02-23T17:59:29;6.80;99.90
36790;DHT22;22740;52.182;8.780;2024-02-23T18:05:31;6.70;99.90
36790;DHT22;22740;52.182;8.780;2024-02-23T18:11:34;6.50;99.90
36790;DHT22;22740;52.182;8.780;2024-02-23T18:17:36;6.50;99.90
36790;DHT22;22740;52.182;8.780;2024-02-23T18:23:38;6.50;99.90
36790;DHT22;22740;52.182;8.780;2024-02-23T18:29:40;6.60;99.90
36790;DHT22;22740;52.182;8.780;2024-02-23T18:35:43;6.70;99.90
36790;DHT22;22740;52.182;8.780;2024-02-23T18:41:45;6.80;99.90
36790;DHT22;22740;52.182;8.780;2024-02-23T18:47:47;6.80;99.90
36790;DHT22;22740;52.182;8.780;2024-02-23T18:53:49;6.80;99.90
36790;DHT22;22740;52.182;8.780;2024-02-23T18:59:51;6.70;99.90
36790;DHT22;22740;52.182;8.780;2024-02-23T19:05:53;6.80;99.90
36790;DHT22;22740;52.182;8.780;2024-02-23T19:11:55;6.70;99.90
36790;DHT22;22740;52.182;8.780;2024-02-23T19:17:58;6.60;99.90
36790;DHT22;22740;52.182;8.780;2024-02-23T19:24:00;6.50;99.90
36790;DHT22;22740;52.182;8.780;2024-02-23T19:30:01;6.50;99.90
36790;DHT22;22740;52.182;8.780;2024-02-23T19:36:05;6.50;99.90
36790;DHT22;22740;52.182;8.780;2024-02-23T19:42:11;6.50;99.90
36790;DHT22;22740;52.182;8.780;2024-02-23T19:48:14;6.50;99.90
36790;DHT22;22740;52.182;8.780;2024-02-23T19:54:16;6.50;99.90
36790;DHT22;22740;52.182;8.780;2024-02-23T20:00:18;6.60;99.90
36790;DHT22;22740;52.182;8.780;2024-02-23T20:06:20;6.60;99.90
36790;DHT22;22740;52.182;8.780;2024-02-23T20:12:22;6.60;99.90
36790;DHT22;22740;52.182;8.780;2024-02-23T20:18:24;6.60;99.90
36790;DHT22;22740;52.182;8.780;2024-02-23T20:24:26;6.60;99.90
36790;DHT22;22740;52.182;8.780;2024-02-23T20:30:29;6.60;99.90
36790;DHT22;22740;52.182;8.780;2024-02-23T20:36:31;6.60;99.90
36790;DHT22;22740;52.182;8.780;2024-02-23T20:42:33;6.60;99.90
36790;DHT22;22740;52.182;8.780;2024-02-23T20:48:34;6.60;99.90
36790;DHT22;22740;52.182;8.780;2024-02-23T20:54:36;6.50;99.90
36790;DHT22;22740;52.182;8.780;2024-02-23T21:00:38;6.40;99.90
36790;DHT22;22740;52.182;8.780;2024-02-23T21:06:40;6.40;99.90
36790;DHT22;22740;52.182;8.780;2024-02-23T21:12:42;6.30;99.90
36790;DHT22;22740;52.182;8.780;2024-02-23T21:18:44;6.20;99.90
36790;DHT22;22740;52.182;8.780;2024-02-23T21:24:46;6.10;99.90
36790;DHT22;22740;52.182;8.780;2024-02-23T21:30:48;6.00;99.90
36790;DHT22;22740;52.182;8.780;2024-02-23T21:36:55;6.00;99.90
36790;DHT22;22740;52.182;8.780;2024-02-23T21:43:00;5.90;99.90
36790;DHT22;22740;52.182;8.780;2024-02-23T21:49:02;5.80;99.90
36790;DHT22;22740;52.182;8.780;2024-02-23T21:55:05;5.70;99.90
36790;DHT22;22740;52.182;8.780;2024-02-23T22:01:07;5.80;99.90
36790;DHT22;22740;52.182;8.780;2024-02-23T22:07:09;5.60;99.90
36790;DHT22;22740;52.182;8.780;2024-02-23T22:13:14;5.50;99.90
36790;DHT22;22740;52.182;8.780;2024-02-23T22:19:16;5.40;99.90
36790;DHT22;22740;52.182;8.780;2024-02-23T22:25:18;5.40;99.90
36790;DHT22;22740;52.182;8.780;2024-02-23T22:31:20;5.30;99.90
36790;DHT22;22740;52.182;8.780;2024-02-23T22:37:22;5.30;99.90
36790;DHT22;22740;52.182;8.780;2024-02-23T22:43:24;5.30;99.90
36790;DHT22;22740;52.182;8.780;2024-02-23T22:49:27;5.20;99.90
36790;DHT22;22740;52.182;8.780;2024-02-23T22:55:29;5.20;99.90
36790;DHT22;22740;52.182;8.780;2024-02-23T23:01:31;5.20;99.90
36790;DHT22;22740;52.182;8.780;2024-02-23T23:07:33;5.10;99.90
36790;DHT22;22740;52.182;8.780;2024-02-23T23:13:37;5.10;99.90
36790;DHT22;22740;52.182;8.780;2024-02-23T23:19:39;5.00;99.90
36790;DHT22;22740;52.182;8.780;2024-02-23T23:25:41;4.90;99.90
36790;DHT22;22740;52.182;8.780;2024-02-23T23:31:43;4.90;99.90
36790;DHT22;22740;52.182;8.780;2024-02-23T23:37:44;4.90;99.90
36790;DHT22;22740;52.182;8.780;2024-02-23T23:43:46;4.80;99.90
36790;DHT22;22740;52.182;8.780;2024-02-23T23:49:49;4.70;99.90
36790;DHT22;22740;52.182;8.780;2024-02-23T23:55:51;4.70;99.90
